Terminal Aerodrome Forecast
Issued by NWS Twin Cities, MN

Home | Current Version | Previous Version | Text Only | Print | Product List | Glossary Off
Versions: 1 2 3 4 5 6 7 8 9 10 11 12 13 14 15 16 17 18 19 20 21 22 23 24 25 26 27 28 29

000
FTUS43 KMPX 251500 AAA
TAFMSP
TAF AMD
KMSP 251501Z 2515/2618 20006KT P6SM BKN012 OVC070
     FM251930 20005KT P6SM SCT015 OVC040
     FM252100 VRB03KT P6SM SCT015 OVC040
     FM260400 03005KT 6SM BR OVC015
     FM261000 36008KT 5SM BR OVC008=

USA.gov is the U.S. government's official web portal to all federal, state and local government web resources and services.